createdAt,value
2022-11-28T00:01:06.160Z,14.25
2022-11-28T00:03:33.131Z,8.05
2022-11-28T00:06:05.086Z,5.60
2022-11-28T00:08:33.113Z,8.30
2022-11-28T00:11:04.521Z,5.18
2022-11-28T00:13:31.566Z,11.13
2022-11-28T00:15:59.527Z,9.13
2022-11-28T00:18:27.006Z,9.20
2022-11-28T00:21:02.835Z,8.45
2022-11-28T00:23:30.373Z,12.35
2022-11-28T00:25:58.675Z,10.13
2022-11-28T00:28:25.595Z,12.98
2022-11-28T00:30:52.497Z,10.30
2022-11-28T00:33:19.340Z,14.03
2022-11-28T00:35:46.309Z,6.90
2022-11-28T00:38:13.255Z,8.05
2022-11-28T00:40:40.351Z,9.57
2022-11-28T00:43:07.227Z,9.95
2022-11-28T00:45:34.009Z,8.63
2022-11-28T00:48:00.820Z,9.43
2022-11-28T00:50:27.578Z,12.57
2022-11-28T00:52:54.301Z,11.13
2022-11-28T00:55:20.987Z,6.95
2022-11-28T00:57:47.819Z,17.87
2022-11-28T01:00:15.179Z,11.83
2022-11-28T01:02:42.063Z,10.70
2022-11-28T01:05:09.341Z,11.25
2022-11-28T01:07:36.155Z,7.78
2022-11-28T01:10:02.998Z,6.93
2022-11-28T01:12:29.733Z,7.93
2022-11-28T01:14:58.121Z,7.47
2022-11-28T01:17:24.872Z,7.93
2022-11-28T01:19:51.763Z,7.07
2022-11-28T01:22:18.539Z,14.32
2022-11-28T01:24:45.318Z,13.53
2022-11-28T01:27:12.359Z,12.20
2022-11-28T01:29:39.031Z,8.82
2022-11-28T01:32:05.833Z,5.30
2022-11-28T01:34:32.696Z,11.05
2022-11-28T01:37:00.133Z,11.43
2022-11-28T01:39:26.836Z,8.68
2022-11-28T01:41:53.550Z,10.30
2022-11-28T01:44:20.254Z,6.57
2022-11-28T01:46:47.194Z,20.87
2022-11-28T01:49:31.102Z,9.80
2022-11-28T01:52:19.612Z,9.85
2022-11-28T01:54:50.666Z,6.55
2022-11-28T01:57:22.232Z,5.55
2022-11-28T02:00:08.996Z,6.57
2022-11-28T02:03:01.840Z,11.82
2022-11-28T02:05:28.881Z,9.43
2022-11-28T02:07:55.672Z,14.95
2022-11-28T02:10:32.599Z,11.87
2022-11-28T02:13:39.640Z,6.70
2022-11-28T02:16:06.625Z,11.70
2022-11-28T02:18:39.438Z,4.30
2022-11-28T02:21:43.629Z,5.93
2022-11-28T02:24:34.487Z,8.27
2022-11-28T02:27:16.417Z,13.43
2022-11-28T02:30:06.403Z,14.07
2022-11-28T02:32:46.040Z,5.60
2022-11-28T02:35:34.437Z,13.27
2022-11-28T02:38:18.992Z,5.38
2022-11-28T02:41:33.387Z,8.98
2022-11-28T02:44:10.671Z,6.90
2022-11-28T02:46:52.863Z,6.00
2022-11-28T02:49:29.818Z,8.95
2022-11-28T02:52:01.598Z,18.63
2022-11-28T02:54:29.070Z,10.68
2022-11-28T02:56:55.818Z,12.18
2022-11-28T02:59:36.682Z,7.87
2022-11-28T03:02:09.635Z,18.33
2022-11-28T03:04:52.289Z,12.88
2022-11-28T03:07:41.862Z,19.33
2022-11-28T03:10:40.706Z,6.30
2022-11-28T03:13:13.688Z,5.20
2022-11-28T03:15:53.649Z,6.47
2022-11-28T03:18:29.791Z,12.65
2022-11-28T03:21:19.081Z,5.15
2022-11-28T03:23:50.847Z,4.35
2022-11-28T03:26:44.987Z,10.48
2022-11-28T03:29:30.197Z,9.05
2022-11-28T03:32:05.877Z,11.50
2022-11-28T03:34:37.798Z,13.43
2022-11-28T03:37:10.935Z,8.73
2022-11-28T03:39:43.626Z,11.63
2022-11-28T03:42:17.987Z,10.85
2022-11-28T03:45:02.461Z,8.55
2022-11-28T03:47:35.410Z,10.38
2022-11-28T03:50:06.485Z,21.08
2022-11-28T03:52:39.793Z,12.25
2022-11-28T03:55:39.618Z,10.02
2022-11-28T03:58:13.396Z,2.20
2022-11-28T04:01:19.806Z,12.88
2022-11-28T04:03:54.953Z,9.13
2022-11-28T04:06:30.427Z,10.75
2022-11-28T04:09:16.802Z,15.23
2022-11-28T04:11:56.716Z,7.75
2022-11-28T04:14:39.429Z,11.63
2022-11-28T04:17:23.832Z,6.82
2022-11-28T04:19:55.271Z,12.13
2022-11-28T04:22:30.863Z,10.55
2022-11-28T04:25:12.402Z,15.43
2022-11-28T04:28:16.344Z,11.52
2022-11-28T04:30:46.134Z,9.73
2022-11-28T04:33:15.560Z,14.00
2022-11-28T04:35:47.267Z,10.95
2022-11-28T04:38:14.836Z,10.85
2022-11-28T04:40:51.636Z,10.25
2022-11-28T04:43:24.726Z,7.38
2022-11-28T04:45:55.910Z,12.88
2022-11-28T04:48:23.357Z,9.80
2022-11-28T04:50:52.842Z,12.00
2022-11-28T04:53:28.618Z,12.20
2022-11-28T04:56:01.658Z,12.40
2022-11-28T04:58:35.692Z,8.75
2022-11-28T05:01:06.318Z,5.72
2022-11-28T05:03:33.696Z,8.73
2022-11-28T05:06:02.155Z,12.93
2022-11-28T05:08:29.173Z,23.83
2022-11-28T05:10:55.918Z,10.02
2022-11-28T05:13:22.881Z,10.73
2022-11-28T05:15:49.787Z,7.72
2022-11-28T05:18:16.591Z,11.93
2022-11-28T05:20:43.883Z,10.68
2022-11-28T05:23:10.999Z,12.77
2022-11-28T05:25:39.907Z,16.80
2022-11-28T05:28:06.801Z,10.90
2022-11-28T05:30:33.466Z,16.80
2022-11-28T05:33:00.906Z,8.63
2022-11-28T05:35:28.301Z,11.07
2022-11-28T05:37:55.202Z,8.40
2022-11-28T05:40:21.988Z,13.30
2022-11-28T05:42:48.735Z,10.55
2022-11-28T05:45:15.463Z,12.40
2022-11-28T05:47:42.274Z,14.20
2022-11-28T05:50:09.408Z,15.80
2022-11-28T05:52:36.299Z,14.60
2022-11-28T05:55:03.229Z,18.07
2022-11-28T05:57:32.009Z,17.38
2022-11-28T05:59:58.897Z,9.15
2022-11-28T06:02:25.672Z,9.32
2022-11-28T06:04:52.567Z,10.43
2022-11-28T06:07:19.790Z,16.17
2022-11-28T06:09:46.681Z,7.45
2022-11-28T06:12:13.962Z,6.83
2022-11-28T06:14:40.874Z,8.00
2022-11-28T06:17:07.691Z,12.65
2022-11-28T06:19:34.755Z,8.90
2022-11-28T06:22:01.466Z,11.95
2022-11-28T06:24:28.233Z,10.23
2022-11-28T06:26:55.231Z,18.20
2022-11-28T06:29:22.271Z,10.35
2022-11-28T06:31:49.220Z,16.77
2022-11-28T06:34:16.350Z,11.18
2022-11-28T06:36:44.654Z,12.32
2022-11-28T06:39:16.286Z,10.90
2022-11-28T06:41:43.865Z,9.80
2022-11-28T06:44:14.437Z,12.20
2022-11-28T06:46:41.763Z,8.80
2022-11-28T06:49:12.935Z,8.10
2022-11-28T06:51:41.267Z,7.15
2022-11-28T06:54:08.513Z,10.27
2022-11-28T06:56:35.763Z,6.90
2022-11-28T06:59:02.649Z,7.97
2022-11-28T07:01:31.303Z,5.18
2022-11-28T07:03:58.387Z,7.30
2022-11-28T07:06:27.797Z,6.10
2022-11-28T07:08:57.757Z,6.22
2022-11-28T07:11:28.007Z,4.47
2022-11-28T07:13:56.230Z,8.30
2022-11-28T07:16:25.710Z,9.63
2022-11-28T07:18:53.771Z,8.60
2022-11-28T07:21:20.646Z,11.60
2022-11-28T07:23:48.576Z,8.98
2022-11-28T07:26:18.243Z,6.50
2022-11-28T07:28:46.271Z,20.52
2022-11-28T07:31:17.310Z,9.23
2022-11-28T07:33:46.718Z,8.57
2022-11-28T07:36:26.060Z,16.27
2022-11-28T07:38:56.001Z,10.48
2022-11-28T07:41:26.489Z,8.02
2022-11-28T07:43:56.864Z,11.77
2022-11-28T07:46:24.379Z,9.25
2022-11-28T07:48:52.128Z,5.80
2022-11-28T07:53:48.039Z,12.00
2022-11-28T07:56:18.558Z,7.10
2022-11-28T07:58:47.288Z,11.65
2022-11-28T08:01:16.045Z,11.65
2022-11-28T08:03:47.485Z,31.17
2022-11-28T08:06:16.846Z,8.55
2022-11-28T08:08:45.871Z,11.57
2022-11-28T08:11:14.173Z,8.95
2022-11-28T08:13:41.869Z,8.00
2022-11-28T08:18:37.188Z,9.18
2022-11-28T08:21:10.092Z,11.68
2022-11-28T08:23:37.957Z,15.63
2022-11-28T08:26:06.928Z,9.07
2022-11-28T08:28:34.167Z,12.15
2022-11-28T08:31:12.446Z,12.43
2022-11-28T08:33:40.614Z,16.38
2022-11-28T08:36:09.373Z,11.02
2022-11-28T08:38:37.097Z,9.20
2022-11-28T08:41:06.303Z,9.20
2022-11-28T08:43:34.575Z,15.20
2022-11-28T08:46:01.547Z,11.68
2022-11-28T08:48:29.307Z,11.50
2022-11-28T08:53:23.443Z,11.70
2022-11-28T08:55:50.428Z,7.07
2022-11-28T08:58:17.317Z,11.32
2022-11-28T09:00:44.064Z,14.23
2022-11-28T09:03:15.231Z,5.50
2022-11-28T09:05:46.502Z,12.35
2022-11-28T09:08:14.649Z,10.68
2022-11-28T09:10:42.726Z,18.35
2022-11-28T09:13:10.422Z,12.85
2022-11-28T09:18:13.664Z,13.68
2022-11-28T09:20:40.982Z,9.75
2022-11-28T09:23:08.647Z,11.00
2022-11-28T09:25:36.798Z,17.35
2022-11-28T09:28:03.756Z,19.02
2022-11-28T09:30:30.706Z,15.73
2022-11-28T09:32:57.465Z,12.63
2022-11-28T09:35:24.476Z,15.48
2022-11-28T09:37:51.440Z,19.13
2022-11-28T09:40:23.586Z,13.60
2022-11-28T09:42:50.527Z,12.63
2022-11-28T09:45:22.980Z,14.60
2022-11-28T09:47:52.576Z,13.68
2022-11-28T09:50:23.959Z,13.38
2022-11-28T09:53:18.569Z,17.65
2022-11-28T09:55:54.425Z,18.40
2022-11-28T09:58:36.604Z,22.50
2022-11-28T10:01:09.198Z,18.58
2022-11-28T10:03:44.697Z,11.40
2022-11-28T10:06:14.432Z,13.00
2022-11-28T10:09:06.358Z,10.88
2022-11-28T10:11:48.618Z,13.10
2022-11-28T10:14:15.575Z,14.27
2022-11-28T10:16:56.857Z,18.17
2022-11-28T10:19:54.410Z,15.30
2022-11-28T10:22:42.118Z,13.20
2022-11-28T10:25:21.140Z,17.30
2022-11-28T10:27:49.182Z,22.45
2022-11-28T10:30:21.874Z,12.30
2022-11-28T10:33:05.282Z,14.88
2022-11-28T10:36:08.889Z,15.90
2022-11-28T10:38:36.843Z,15.52
2022-11-28T10:41:13.842Z,14.35
2022-11-28T10:43:56.136Z,18.20
2022-11-28T10:46:37.321Z,14.50
2022-11-28T10:49:12.992Z,17.73
2022-11-28T10:52:10.778Z,15.02
2022-11-28T10:55:13.053Z,13.68
2022-11-28T10:58:05.325Z,17.65
2022-11-28T11:00:34.032Z,13.70
2022-11-28T11:03:03.185Z,13.13
2022-11-28T11:05:36.224Z,13.73
2022-11-28T11:08:21.240Z,10.85
2022-11-28T11:10:57.815Z,11.45
2022-11-28T11:13:28.078Z,13.13
2022-11-28T11:16:04.578Z,17.63
2022-11-28T11:18:51.958Z,14.73
2022-11-28T11:24:11.839Z,16.25
2022-11-28T11:26:42.015Z,20.20
2022-11-28T11:29:29.576Z,15.00
2022-11-28T11:31:58.309Z,13.10
2022-11-28T11:34:27.665Z,19.42
2022-11-28T11:37:23.079Z,18.63
2022-11-28T11:39:51.926Z,19.30
2022-11-28T11:42:27.272Z,11.18
2022-11-28T11:44:57.103Z,13.63
2022-11-28T11:47:42.164Z,27.75
2022-11-28T11:50:21.387Z,16.20
2022-11-28T11:53:10.311Z,16.63
2022-11-28T11:56:00.335Z,16.08
2022-11-28T11:58:36.483Z,18.88
2022-11-28T12:01:05.001Z,11.48
2022-11-28T12:03:54.986Z,16.58
2022-11-28T12:06:36.774Z,20.77
2022-11-28T12:09:44.425Z,16.52
2022-11-28T12:12:19.171Z,17.52
2022-11-28T12:14:49.065Z,8.82
2022-11-28T12:20:39.318Z,18.55
2022-11-28T12:23:23.731Z,16.60
2022-11-28T12:26:09.898Z,15.18
2022-11-28T12:28:48.949Z,22.35
2022-11-28T12:31:40.534Z,28.65
2022-11-28T12:34:26.077Z,15.18
2022-11-28T12:37:18.597Z,16.70
2022-11-28T12:40:15.045Z,19.38
2022-11-28T12:43:18.054Z,18.50
2022-11-28T12:46:14.680Z,21.15
2022-11-28T12:48:59.149Z,24.20
2022-11-28T12:51:47.284Z,13.63
2022-11-28T12:54:43.396Z,14.38
2022-11-28T12:57:23.770Z,23.42
2022-11-28T13:00:08.377Z,19.40
2022-11-28T13:02:42.941Z,21.30
2022-11-28T13:05:42.448Z,25.00
2022-11-28T13:08:47.998Z,15.85
2022-11-28T13:11:54.319Z,17.08
2022-11-28T13:14:28.682Z,17.88
2022-11-28T13:16:59.257Z,18.80
2022-11-28T13:19:57.107Z,18.83
2022-11-28T13:22:27.994Z,20.75
2022-11-28T13:25:04.615Z,22.77
2022-11-28T13:27:47.883Z,26.50
2022-11-28T13:30:24.526Z,23.45
2022-11-28T13:33:23.947Z,19.60
2022-11-28T13:35:52.437Z,25.10
2022-11-28T13:39:08.137Z,20.50
2022-11-28T13:42:21.344Z,18.45
2022-11-28T13:44:58.241Z,17.75
2022-11-28T13:47:32.566Z,27.38
2022-11-28T13:50:24.701Z,22.63
2022-11-28T13:53:06.521Z,23.85
2022-11-28T13:55:47.118Z,21.17
2022-11-28T13:58:22.234Z,20.95
2022-11-28T14:01:11.256Z,11.50
2022-11-28T14:03:50.768Z,14.63
2022-11-28T14:06:45.245Z,31.85
2022-11-28T14:09:12.382Z,17.92
2022-11-28T14:12:13.674Z,16.73
2022-11-28T14:15:23.964Z,15.90
2022-11-28T14:18:24.763Z,20.15
2022-11-28T14:20:58.994Z,20.02
2022-11-28T14:23:28.966Z,28.67
2022-11-28T14:25:56.647Z,24.73
2022-11-28T14:28:31.643Z,18.23
2022-11-28T14:31:23.485Z,22.77
2022-11-28T14:33:58.343Z,17.25
2022-11-28T14:36:36.145Z,18.17
2022-11-28T14:39:08.997Z,16.63
2022-11-28T14:42:01.078Z,14.75
2022-11-28T14:44:57.084Z,14.65
2022-11-28T14:47:34.974Z,24.80
2022-11-28T14:50:04.974Z,18.63
2022-11-28T14:52:41.487Z,19.85
2022-11-28T14:55:13.293Z,18.33
2022-11-28T14:57:53.453Z,16.77
2022-11-28T15:00:28.503Z,23.33
2022-11-28T15:03:14.634Z,26.80
2022-11-28T15:05:55.362Z,23.05
2022-11-28T15:08:40.873Z,13.63
2022-11-28T15:11:29.382Z,19.60
2022-11-28T15:14:08.938Z,11.90
2022-11-28T15:16:42.836Z,27.33
2022-11-28T15:19:31.460Z,19.83
2022-11-28T15:22:01.573Z,18.00
2022-11-28T15:24:37.729Z,17.65
2022-11-28T15:27:07.287Z,22.38
2022-11-28T15:29:35.618Z,19.65
2022-11-28T15:32:04.573Z,27.52
2022-11-28T15:34:33.651Z,29.58
2022-11-28T15:37:05.203Z,20.20
2022-11-28T15:39:35.730Z,32.80
2022-11-28T15:42:05.538Z,20.23
2022-11-28T15:44:32.919Z,14.68
2022-11-28T15:47:00.094Z,16.92
2022-11-28T15:49:33.828Z,19.00
2022-11-28T15:52:04.884Z,21.05
2022-11-28T15:54:38.027Z,25.58
2022-11-28T15:57:06.543Z,20.02
2022-11-28T15:59:34.255Z,21.20
2022-11-28T16:02:15.242Z,20.10
2022-11-28T16:04:45.213Z,16.35
2022-11-28T16:07:14.831Z,19.27
2022-11-28T16:09:54.856Z,17.75
2022-11-28T16:12:22.169Z,17.98
2022-11-28T16:14:51.328Z,32.10
2022-11-28T16:17:32.375Z,13.23
2022-11-28T16:20:00.763Z,20.17
2022-11-28T16:22:33.674Z,17.52
2022-11-28T16:25:13.198Z,22.17
2022-11-28T16:27:42.631Z,28.42
2022-11-28T16:30:26.821Z,18.40
2022-11-28T16:32:56.976Z,19.85
2022-11-28T16:35:40.369Z,21.23
2022-11-28T16:38:18.158Z,27.00
2022-11-28T16:40:45.250Z,37.28
2022-11-28T16:43:37.574Z,20.27
2022-11-28T16:46:06.704Z,18.20
2022-11-28T16:48:56.559Z,17.17
2022-11-28T16:51:30.297Z,17.17
2022-11-28T16:54:01.402Z,22.75
2022-11-28T16:56:31.600Z,24.30
2022-11-28T16:59:12.057Z,15.13
2022-11-28T17:01:40.466Z,17.40
2022-11-28T17:04:23.372Z,24.88
2022-11-28T17:06:56.445Z,17.05
2022-11-28T17:09:23.842Z,17.05
2022-11-28T17:12:16.228Z,16.88
2022-11-28T17:14:44.183Z,19.33
2022-11-28T17:17:15.894Z,20.30
2022-11-28T17:19:44.081Z,15.05
2022-11-28T17:22:24.666Z,21.73
2022-11-28T17:24:54.746Z,18.02
2022-11-28T17:27:21.690Z,20.70
2022-11-28T17:29:48.615Z,18.33
2022-11-28T17:32:15.425Z,30.70
2022-11-28T17:34:42.866Z,18.58
2022-11-28T17:39:36.915Z,15.85
2022-11-28T17:42:05.351Z,18.60
2022-11-28T17:44:34.504Z,28.40
2022-11-28T17:47:02.705Z,16.75
2022-11-28T17:49:30.984Z,19.30
2022-11-28T17:51:58.793Z,21.75
2022-11-28T17:54:26.825Z,19.15
2022-11-28T17:56:54.176Z,13.57
2022-11-28T17:59:22.844Z,19.02
2022-11-28T18:01:50.545Z,24.85
2022-11-28T18:04:23.461Z,20.23
2022-11-28T18:06:50.410Z,17.17
2022-11-28T18:09:17.170Z,28.95
2022-11-28T18:11:46.993Z,25.92
2022-11-28T18:14:14.646Z,16.60
2022-11-28T18:16:44.055Z,22.27
2022-11-28T18:19:12.586Z,16.27
2022-11-28T18:21:42.364Z,15.05
2022-11-28T18:24:09.479Z,15.75
2022-11-28T18:26:37.571Z,18.53
2022-11-28T18:29:07.523Z,22.17
2022-11-28T18:31:35.133Z,19.92
2022-11-28T18:36:35.480Z,18.13
2022-11-28T18:39:06.549Z,22.77
2022-11-28T18:41:33.913Z,18.73
2022-11-28T18:44:04.401Z,20.50
2022-11-28T18:46:33.437Z,19.65
2022-11-28T18:49:01.534Z,19.33
2022-11-28T18:51:31.186Z,28.30
2022-11-28T18:53:58.703Z,28.77
2022-11-28T18:56:26.432Z,24.15
2022-11-28T18:58:55.166Z,20.55
2022-11-28T19:01:30.304Z,28.98
2022-11-28T19:04:05.798Z,26.33
2022-11-28T19:06:34.991Z,21.38
2022-11-28T19:09:04.503Z,18.52
2022-11-28T19:11:32.093Z,24.00
2022-11-28T19:13:59.405Z,22.48
2022-11-28T19:16:33.181Z,29.33
2022-11-28T19:19:01.246Z,18.75
2022-11-28T19:21:32.680Z,22.02
2022-11-28T19:24:01.081Z,16.38
2022-11-28T19:26:30.061Z,24.35
2022-11-28T19:28:59.825Z,29.50
2022-11-28T19:31:29.850Z,24.35
2022-11-28T19:34:17.283Z,42.38
2022-11-28T19:36:48.145Z,28.97
2022-11-28T19:39:17.733Z,35.80
2022-11-28T19:41:45.982Z,32.50
2022-11-28T19:44:13.855Z,27.98
2022-11-28T19:46:41.182Z,32.70
2022-11-28T19:49:13.936Z,29.02
2022-11-28T19:51:40.726Z,25.15
2022-11-28T19:54:08.178Z,40.42
2022-11-28T19:56:35.413Z,29.80
2022-11-28T19:59:05.854Z,28.48
2022-11-28T20:01:34.384Z,48.08
2022-11-28T20:04:01.486Z,27.40
2022-11-28T20:06:31.443Z,23.90
2022-11-28T20:09:05.147Z,42.70
2022-11-28T20:11:34.971Z,25.05
2022-11-28T20:14:06.349Z,29.20
2022-11-28T20:16:36.381Z,32.40
2022-11-28T20:19:05.234Z,28.23
2022-11-28T20:21:37.063Z,39.65
2022-11-28T20:24:07.388Z,35.75
2022-11-28T20:26:39.205Z,32.50
2022-11-28T20:29:08.015Z,27.05
2022-11-28T20:31:37.987Z,35.35
2022-11-28T20:34:06.000Z,34.63
2022-11-28T20:36:33.761Z,32.92
2022-11-28T20:41:28.949Z,27.83
2022-11-28T20:43:56.363Z,33.08
2022-11-28T20:46:30.238Z,33.38
2022-11-28T20:48:59.386Z,32.17
2022-11-28T20:51:27.741Z,39.53
2022-11-28T20:53:56.155Z,38.95
2022-11-28T20:56:25.539Z,32.38
2022-11-28T20:58:52.719Z,33.78
2022-11-28T21:01:25.204Z,31.45
2022-11-28T21:03:52.502Z,31.23
2022-11-28T21:06:20.647Z,43.83
2022-11-28T21:08:47.819Z,33.72
2022-11-28T21:11:43.390Z,32.88
2022-11-28T21:14:07.933Z,27.60
2022-11-28T21:19:06.026Z,22.23
2022-11-28T21:21:34.479Z,22.13
2022-11-28T21:24:07.494Z,23.17
2022-11-28T21:26:40.895Z,22.48
2022-11-28T21:29:11.189Z,28.88
2022-11-28T21:31:41.660Z,28.88
2022-11-28T21:34:14.074Z,27.35
2022-11-28T21:36:41.186Z,25.83
2022-11-28T21:39:09.093Z,28.63
2022-11-28T21:41:36.045Z,28.73
2022-11-28T21:44:07.497Z,44.28
2022-11-28T21:46:34.710Z,36.00
2022-11-28T21:49:01.969Z,33.17
2022-11-28T21:51:29.221Z,38.80
2022-11-28T21:56:26.008Z,24.52
2022-11-28T21:58:54.029Z,22.02
2022-11-28T22:01:22.478Z,27.33
2022-11-28T22:03:50.144Z,22.77
2022-11-28T22:06:20.901Z,32.75
2022-11-28T22:08:49.268Z,21.38
2022-11-28T22:11:17.153Z,30.80
2022-11-28T22:13:47.643Z,25.85
2022-11-28T22:16:26.228Z,31.08
2022-11-28T22:18:55.613Z,27.23
2022-11-28T22:24:11.096Z,28.60
2022-11-28T22:26:38.307Z,50.25
2022-11-28T22:29:05.586Z,29.92
2022-11-28T22:31:33.350Z,27.67
2022-11-28T22:36:28.783Z,22.52
2022-11-28T22:38:57.458Z,38.47
2022-11-28T22:41:29.159Z,19.77
2022-11-28T22:44:01.012Z,26.95
2022-11-28T22:46:31.239Z,22.77
2022-11-28T22:49:00.813Z,25.40
2022-11-28T22:51:29.249Z,37.42
2022-11-28T22:54:01.527Z,33.70
2022-11-28T22:56:31.163Z,28.83
2022-11-28T22:58:59.157Z,26.65
2022-11-28T23:01:29.857Z,25.83
2022-11-28T23:03:57.229Z,34.25
2022-11-28T23:06:26.861Z,24.93
2022-11-28T23:08:57.080Z,28.65
2022-11-28T23:11:29.277Z,28.35
2022-11-28T23:13:56.722Z,30.67
2022-11-28T23:16:33.127Z,19.73
2022-11-28T23:19:04.424Z,21.42
2022-11-28T23:21:35.450Z,25.98
2022-11-28T23:24:04.007Z,29.60
2022-11-28T23:26:32.493Z,28.35
2022-11-28T23:29:01.950Z,27.52
2022-11-28T23:31:31.366Z,25.88
2022-11-28T23:33:59.734Z,30.42
2022-11-28T23:36:38.427Z,30.33
2022-11-28T23:39:12.534Z,25.30
2022-11-28T23:41:39.403Z,22.65
2022-11-28T23:44:06.259Z,21.17
2022-11-28T23:46:33.445Z,38.73
2022-11-28T23:49:00.920Z,20.65
2022-11-28T23:51:27.833Z,17.90
2022-11-28T23:53:54.968Z,29.73
2022-11-28T23:56:25.231Z,23.05
2022-11-28T23:58:53.499Z,19.67
